createdAt,value
2024-05-09T00:04:48.685Z,13319.82324
2024-05-09T00:19:50.797Z,8991.93848
2024-05-09T00:34:52.876Z,9267.37891
2024-05-09T00:49:54.945Z,4305.11279
2024-05-09T01:04:57.134Z,4750.80566
2024-05-09T01:19:59.376Z,3508.07056
2024-05-09T01:35:01.518Z,2144.96558
2024-05-09T01:50:03.736Z,865.36017
2024-05-09T02:05:06.170Z,690.76996
2024-05-09T02:20:13.151Z,553.04974
2024-05-09T02:35:18.244Z,421.83597
2024-05-09T02:50:29.079Z,289.53781
2024-05-09T03:05:36.682Z,143.14229
2024-05-09T03:20:39.487Z,43.37645
2024-05-09T03:35:41.963Z,7.59088
2024-05-09T03:50:44.079Z,1.08441
2024-05-09T04:05:46.246Z,0
2024-05-09T04:20:48.519Z,0
2024-05-09T04:35:50.714Z,0
2024-05-09T04:50:53.177Z,0
2024-05-09T05:05:55.850Z,0
2024-05-09T05:20:58.155Z,0
2024-05-09T05:36:00.620Z,0
2024-05-09T05:51:04.627Z,0
2024-05-09T06:06:07.080Z,0
2024-05-09T06:21:09.290Z,0
2024-05-09T06:36:11.448Z,0
2024-05-09T06:51:13.607Z,0
2024-05-09T07:06:15.815Z,0
2024-05-09T07:21:18.154Z,0
2024-05-09T07:36:20.365Z,0
2024-05-09T08:06:27.494Z,0
2024-05-09T08:21:29.635Z,0
2024-05-09T08:36:31.753Z,0
2024-05-09T08:51:33.782Z,0
2024-05-09T09:06:35.894Z,0
2024-05-09T09:21:37.930Z,0
2024-05-09T09:36:39.947Z,0
2024-05-09T09:51:41.959Z,0
2024-05-09T10:06:44.020Z,0
2024-05-09T10:21:46.057Z,0
2024-05-09T10:36:48.110Z,0
2024-05-09T10:51:50.331Z,0
2024-05-09T11:06:52.375Z,0
2024-05-09T11:21:54.460Z,0
2024-05-09T11:36:56.506Z,0
2024-05-09T11:51:58.675Z,3.25323
2024-05-09T12:07:00.769Z,26.02587
2024-05-09T12:22:02.841Z,100.85025
2024-05-09T12:37:04.938Z,225.55754
2024-05-09T12:52:07.279Z,360.02454
2024-05-09T13:07:09.543Z,609.43915
2024-05-09T13:22:11.876Z,788.367
2024-05-09T13:37:14.107Z,1371.78027
2024-05-09T13:52:16.207Z,13519.35547
2024-05-09T14:07:18.309Z,5055.52539
2024-05-09T14:22:20.388Z,12623.63184
2024-05-09T14:37:22.457Z,3633.86206
2024-05-09T14:52:24.500Z,5923.0542
2024-05-09T15:07:26.615Z,2604.75586
2024-05-09T15:22:28.622Z,3465.77832
2024-05-09T15:37:30.624Z,7210.25049
2024-05-09T15:52:32.671Z,9201.22949
2024-05-09T16:07:34.657Z,9585.11133
2024-05-09T16:22:36.640Z,8863.97754
2024-05-09T16:37:38.745Z,9618.72754
2024-05-09T16:52:40.840Z,9949.47363
2024-05-09T17:07:42.899Z,10263.95215
2024-05-09T17:22:44.886Z,10229.25098
2024-05-09T17:37:46.964Z,10345.2832
2024-05-09T17:52:49.282Z,10379.98438
2024-05-09T18:07:51.371Z,10989.42383
2024-05-09T18:22:53.478Z,9867.05762
2024-05-09T18:37:55.506Z,9624.15039
2024-05-09T18:52:58.319Z,9726.08496
2024-05-09T19:08:00.495Z,8598.29688
2024-05-09T19:23:02.620Z,9078.69141
2024-05-09T19:38:04.866Z,9284.72949
2024-05-09T19:53:06.916Z,9912.60352
2024-05-09T20:08:08.985Z,10729.16504
2024-05-09T20:23:11.269Z,9922.36328
2024-05-09T20:38:13.590Z,8383.58301
2024-05-09T20:53:15.757Z,8905.18555
2024-05-09T21:08:17.867Z,11890.56934
2024-05-09T21:23:20.025Z,13774.19141
2024-05-09T21:38:22.084Z,15187.17969
2024-05-09T21:53:24.247Z,16127.36426
2024-05-09T22:08:26.194Z,16643.54492
2024-05-09T22:23:28.331Z,17172.73633
2024-05-09T22:38:30.403Z,17290.9375
2024-05-09T22:53:32.395Z,17527.33984
2024-05-09T23:08:34.376Z,17828.80469
2024-05-09T23:23:36.378Z,17951.34375
2024-05-09T23:38:38.581Z,17936.16211
2024-05-09T23:53:40.567Z,17581.56055
